Time;durP1;ratioP1;P1;durP2;ratioP2;P2;SDS_P1;SDS_P2;PMS_P1;PMS_P2;Temp;Humidity;BMP_temperature;BMP_pressure;BME280_temperature;BME280_humidity;BME280_pressure;Samples;Min_cycle;Max_cycle;Signal;HPM_P1;HPM_P2
2023/09/06 00:00:55;;;;;;;6.90;3.63;;;;;;;;;;5077179;28;20035;-83
2023/09/06 00:03:21;;;;;;;5.65;3.65;;;;;;;;;;5080847;28;20077;-83
2023/09/06 00:05:46;;;;;;;4.93;3.65;;;;;;;;;;5084349;28;20036;-83
2023/09/06 00:08:14;;;;;;;4.15;3.47;;;;;;;;;;5077213;28;20038;-83
2023/09/06 00:10:43;;;;;;;4.57;3.70;;;;;;;;;;5075258;28;20040;-83
2023/09/06 00:13:10;;;;;;;6.75;3.33;;;;;;;;;;5080820;28;20028;-83
2023/09/06 00:15:36;;;;;;;4.97;3.40;;;;;;;;;;5086960;28;20505;-83
2023/09/06 00:20:45;;;;;;;6.65;3.60;;;;;;;;;;5926802;22;20900;-83
2023/09/06 00:23:13;;;;;;;6.13;3.55;;;;;;;;;;5045044;28;20059;-83
2023/09/06 00:25:39;;;;;;;6.57;3.47;;;;;;;;;;5050482;28;20043;-83
2023/09/06 00:28:05;;;;;;;4.82;3.53;;;;;;;;;;5051335;28;20041;-83
2023/09/06 00:30:31;;;;;;;5.18;3.13;;;;;;;;;;5044609;28;20029;-82
2023/09/06 00:32:58;;;;;;;6.93;3.75;;;;;;;;;;5038277;28;20033;-82
2023/09/06 00:35:26;;;;;;;8.43;3.47;;;;;;;;;;5050745;28;20060;-84
2023/09/06 00:37:53;;;;;;;4.13;3.20;;;;;;;;;;5042981;28;20071;-84
2023/09/06 00:40:21;;;;;;;5.68;3.22;;;;;;;;;;5046784;28;20037;-85
2023/09/06 00:42:51;;;;;;;10.38;3.42;;;;;;;;;;5053431;28;20079;-83
2023/09/06 00:45:21;;;;;;;5.90;3.33;;;;;;;;;;5054499;28;20494;-83
2023/09/06 00:47:49;;;;;;;6.78;3.55;;;;;;;;;;5043004;28;20532;-83
2023/09/06 00:50:16;;;;;;;7.35;3.50;;;;;;;;;;5054313;28;20086;-85
2023/09/06 00:52:43;;;;;;;6.43;3.28;;;;;;;;;;5044558;28;20037;-83
2023/09/06 00:55:09;;;;;;;6.15;3.33;;;;;;;;;;5022065;28;20034;-83
2023/09/06 00:57:35;;;;;;;5.10;3.30;;;;;;;;;;5055489;28;20036;-84
2023/09/06 01:00:03;;;;;;;3.10;2.78;;;;;;;;;;5037560;28;20048;-83
2023/09/06 01:02:29;;;;;;;5.28;3.25;;;;;;;;;;5041471;28;20041;-85
2023/09/06 01:04:55;;;;;;;4.57;3.10;;;;;;;;;;5048378;28;20036;-83
2023/09/06 01:07:28;;;;;;;4.55;3.33;;;;;;;;;;5044609;28;20033;-83
2023/09/06 01:09:53;;;;;;;6.37;3.63;;;;;;;;;;5041240;28;20056;-83
2023/09/06 01:12:19;;;;;;;4.63;3.45;;;;;;;;;;5047036;28;20096;-83
2023/09/06 01:14:44;;;;;;;4.93;3.17;;;;;;;;;;5046558;28;20029;-83
2023/09/06 01:17:13;;;;;;;4.80;3.00;;;;;;;;;;5053441;28;20399;-85
2023/09/06 01:19:44;;;;;;;3.20;2.80;;;;;;;;;;5055871;28;20033;-83
2023/09/06 01:22:21;;;;;;;5.43;3.10;;;;;;;;;;5053811;28;20037;-85
2023/09/06 01:24:47;;;;;;;4.85;3.15;;;;;;;;;;5049572;28;20038;-83
2023/09/06 01:27:13;;;;;;;4.22;3.30;;;;;;;;;;5046342;28;20059;-84
2023/09/06 01:29:40;;;;;;;5.03;2.90;;;;;;;;;;5044302;28;20060;-85
2023/09/06 01:32:06;;;;;;;5.78;3.42;;;;;;;;;;5057885;28;20068;-83
2023/09/06 01:34:31;;;;;;;4.00;3.20;;;;;;;;;;5049529;28;20509;-84
2023/09/06 01:36:57;;;;;;;4.20;3.05;;;;;;;;;;5047058;28;20398;-82
2023/09/06 01:39:23;;;;;;;5.30;2.88;;;;;;;;;;5063400;28;20034;-84
2023/09/06 01:41:48;;;;;;;3.03;2.50;;;;;;;;;;5058605;28;20132;-84
2023/09/06 01:44:14;;;;;;;4.00;2.85;;;;;;;;;;5047489;28;20033;-83
2023/09/06 01:46:40;;;;;;;3.25;2.70;;;;;;;;;;5056339;28;20060;-84
2023/09/06 01:49:06;;;;;;;6.25;3.00;;;;;;;;;;5058725;28;20025;-82
2023/09/06 01:51:31;;;;;;;4.07;3.00;;;;;;;;;;5044541;28;20064;-83
2023/09/06 01:53:57;;;;;;;5.32;3.03;;;;;;;;;;5053054;28;20086;-85
2023/09/06 01:56:22;;;;;;;4.03;3.10;;;;;;;;;;5058785;28;20405;-84
2023/09/06 01:58:48;;;;;;;3.55;2.83;;;;;;;;;;5057204;28;20069;-83
2023/09/06 02:01:14;;;;;;;4.78;2.40;;;;;;;;;;5044811;28;20045;-84
2023/09/06 02:03:39;;;;;;;2.88;2.42;;;;;;;;;;5056939;28;20121;-85
2023/09/06 02:06:05;;;;;;;4.18;2.38;;;;;;;;;;5043280;28;20363;-82
2023/09/06 02:08:32;;;;;;;3.58;2.47;;;;;;;;;;5047410;28;20040;-83
2023/09/06 02:10:57;;;;;;;4.25;2.78;;;;;;;;;;5051426;28;20036;-83
2023/09/06 02:13:23;;;;;;;4.97;3.25;;;;;;;;;;5048674;28;20037;-83
2023/09/06 02:15:48;;;;;;;4.20;3.28;;;;;;;;;;5050798;28;20017;-83
2023/09/06 02:18:17;;;;;;;4.60;3.20;;;;;;;;;;5046261;28;20120;-83
2023/09/06 02:20:44;;;;;;;4.68;3.47;;;;;;;;;;5050353;28;20080;-84
2023/09/06 02:23:10;;;;;;;4.60;3.50;;;;;;;;;;5048432;28;20034;-84
2023/09/06 02:25:35;;;;;;;7.15;3.10;;;;;;;;;;5044035;28;20060;-82
2023/09/06 02:28:06;;;;;;;7.25;3.97;;;;;;;;;;5045508;28;20039;-83
2023/09/06 02:30:32;;;;;;;10.13;3.85;;;;;;;;;;5046026;28;20063;-82
2023/09/06 02:32:58;;;;;;;5.22;3.78;;;;;;;;;;5051164;28;20025;-83
2023/09/06 02:35:23;;;;;;;8.27;4.32;;;;;;;;;;5053808;28;20418;-83
2023/09/06 02:37:49;;;;;;;6.55;4.00;;;;;;;;;;5043804;28;20005;-84
2023/09/06 02:40:18;;;;;;;5.43;3.13;;;;;;;;;;5047918;28;20040;-85
2023/09/06 02:42:44;;;;;;;3.53;2.88;;;;;;;;;;5044479;28;20025;-84
2023/09/06 02:45:13;;;;;;;4.50;3.33;;;;;;;;;;5045458;28;20044;-82
2023/09/06 02:47:48;;;;;;;5.97;3.67;;;;;;;;;;5051109;28;20041;-82
2023/09/06 02:50:14;;;;;;;5.65;3.95;;;;;;;;;;5043920;28;20491;-83
2023/09/06 02:52:44;;;;;;;9.65;4.00;;;;;;;;;;5047944;28;20050;-81
2023/09/06 02:55:13;;;;;;;6.32;3.63;;;;;;;;;;5057064;28;20029;-82
2023/09/06 02:57:42;;;;;;;7.28;4.13;;;;;;;;;;5047447;28;20035;-83
2023/09/06 03:00:24;;;;;;;6.40;4.18;;;;;;;;;;5042036;28;20064;-84
2023/09/06 03:02:54;;;;;;;6.68;4.07;;;;;;;;;;5068800;28;20543;-83
2023/09/06 03:05:20;;;;;;;6.47;4.18;;;;;;;;;;5065120;28;20028;-84
2023/09/06 03:07:49;;;;;;;5.13;3.95;;;;;;;;;;5047463;28;20093;-84
2023/09/06 03:10:19;;;;;;;6.78;4.25;;;;;;;;;;5047194;28;20107;-84
2023/09/06 03:12:47;;;;;;;6.95;4.05;;;;;;;;;;5059127;28;20410;-85
2023/09/06 03:15:13;;;;;;;4.65;3.92;;;;;;;;;;5043499;28;20029;-83
2023/09/06 03:17:39;;;;;;;4.82;4.10;;;;;;;;;;5057109;28;20031;-83
2023/09/06 03:20:31;;;;;;;9.05;4.00;;;;;;;;;;5041234;28;20091;-83
2023/09/06 03:23:01;;;;;;;5.20;3.72;;;;;;;;;;5052291;28;20038;-83
2023/09/06 03:25:27;;;;;;;4.82;3.42;;;;;;;;;;5053883;28;20063;-83
2023/09/06 03:28:00;;;;;;;4.10;3.40;;;;;;;;;;5055809;28;20072;-82
2023/09/06 03:30:30;;;;;;;19.13;3.80;;;;;;;;;;5053816;28;20037;-82
2023/09/06 03:32:57;;;;;;;5.28;3.60;;;;;;;;;;5041240;28;20090;-81
2023/09/06 03:35:23;;;;;;;4.68;3.67;;;;;;;;;;5029763;28;20037;-83
2023/09/06 03:37:52;;;;;;;21.05;4.18;;;;;;;;;;5038947;28;20034;-84
2023/09/06 03:40:36;;;;;;;4.70;4.05;;;;;;;;;;5037488;28;20060;-83
2023/09/06 03:43:17;;;;;;;4.40;3.60;;;;;;;;;;5037795;28;20048;-83
2023/09/06 03:45:54;;;;;;;4.35;3.80;;;;;;;;;;5036835;28;20037;-84
2023/09/06 03:48:22;;;;;;;4.20;3.67;;;;;;;;;;5051711;28;20049;-84
2023/09/06 03:50:57;;;;;;;4.40;3.70;;;;;;;;;;5025452;28;20105;-83
2023/09/06 03:53:25;;;;;;;6.25;3.10;;;;;;;;;;5047911;28;20041;-84
2023/09/06 03:55:57;;;;;;;4.10;3.35;;;;;;;;;;5030044;28;20035;-83
2023/09/06 03:58:24;;;;;;;3.55;3.13;;;;;;;;;;5057418;28;20032;-84
2023/09/06 04:00:52;;;;;;;3.70;2.92;;;;;;;;;;5050090;28;20045;-82
2023/09/06 04:03:26;;;;;;;3.33;2.90;;;;;;;;;;5040122;28;20082;-83
2023/09/06 04:05:53;;;;;;;4.50;3.25;;;;;;;;;;5052234;28;20043;-81
2023/09/06 04:08:20;;;;;;;5.32;3.30;;;;;;;;;;5048799;28;20033;-83
2023/09/06 04:10:49;;;;;;;4.32;3.25;;;;;;;;;;5054520;28;20041;-84
2023/09/06 04:13:16;;;;;;;5.25;3.50;;;;;;;;;;5055269;28;20034;-82
2023/09/06 04:15:44;;;;;;;4.47;3.30;;;;;;;;;;5057402;28;20083;-83
2023/09/06 04:18:11;;;;;;;5.68;3.80;;;;;;;;;;5055548;28;20040;-83
2023/09/06 04:20:39;;;;;;;6.35;3.53;;;;;;;;;;5031204;28;20033;-84
2023/09/06 04:23:08;;;;;;;4.07;3.15;;;;;;;;;;5052031;28;20116;-84
2023/09/06 04:25:44;;;;;;;6.65;3.67;;;;;;;;;;5046007;28;20500;-81
2023/09/06 04:28:16;;;;;;;5.75;3.30;;;;;;;;;;5033999;28;20041;-82
2023/09/06 04:30:45;;;;;;;5.30;3.40;;;;;;;;;;5059162;28;20159;-83
2023/09/06 04:33:14;;;;;;;4.38;3.08;;;;;;;;;;5041548;28;20041;-82
2023/09/06 04:35:47;;;;;;;5.28;3.28;;;;;;;;;;5060672;28;20033;-82
2023/09/06 04:38:20;;;;;;;4.63;3.00;;;;;;;;;;5052696;28;20041;-82
2023/09/06 04:40:48;;;;;;;7.75;3.83;;;;;;;;;;5038079;28;20510;-83
2023/09/06 04:43:17;;;;;;;5.22;3.88;;;;;;;;;;5042028;28;20417;-83
2023/09/06 04:45:43;;;;;;;6.38;4.50;;;;;;;;;;5038445;28;20025;-83
2023/09/06 04:48:11;;;;;;;9.55;5.00;;;;;;;;;;5030362;28;20022;-83
2023/09/06 04:50:39;;;;;;;9.18;5.00;;;;;;;;;;5054149;28;20044;-83
2023/09/06 04:53:07;;;;;;;10.35;5.40;;;;;;;;;;5058223;28;20107;-84
2023/09/06 04:55:35;;;;;;;10.75;6.20;;;;;;;;;;5049603;28;20037;-82
2023/09/06 04:58:05;;;;;;;11.43;6.03;;;;;;;;;;5045345;28;20036;-82
2023/09/06 05:00:35;;;;;;;11.95;6.03;;;;;;;;;;5052378;28;20037;-82
2023/09/06 05:03:03;;;;;;;17.48;5.20;;;;;;;;;;5037645;28;20108;-83
2023/09/06 05:05:29;;;;;;;20.10;4.38;;;;;;;;;;5041685;28;20041;-83
2023/09/06 05:07:55;;;;;;;43.90;4.75;;;;;;;;;;5043097;28;20040;-83
2023/09/06 05:10:21;;;;;;;28.45;5.35;;;;;;;;;;5049815;28;20029;-83
2023/09/06 05:12:47;;;;;;;22.27;5.38;;;;;;;;;;5044679;28;20125;-83
2023/09/06 05:15:13;;;;;;;21.23;5.75;;;;;;;;;;5055986;28;20028;-83
2023/09/06 05:17:40;;;;;;;25.13;5.60;;;;;;;;;;5041022;28;20472;-81
2023/09/06 05:20:31;;;;;;;15.43;5.65;;;;;;;;;;5047827;28;20194;-84
2023/09/06 05:23:03;;;;;;;14.38;5.80;;;;;;;;;;5033432;28;20032;-82
2023/09/06 05:25:31;;;;;;;21.27;5.85;;;;;;;;;;5056196;28;20559;-82
2023/09/06 05:28:01;;;;;;;8.68;4.78;;;;;;;;;;5050146;28;20033;-82
2023/09/06 05:30:27;;;;;;;14.80;5.15;;;;;;;;;;5031926;28;20025;-82
2023/09/06 05:32:55;;;;;;;6.80;5.20;;;;;;;;;;5036268;28;20513;-83
2023/09/06 05:35:26;;;;;;;11.30;4.22;;;;;;;;;;5029810;28;20029;-82
2023/09/06 05:37:52;;;;;;;9.90;3.70;;;;;;;;;;5049832;28;20025;-82
2023/09/06 05:40:22;;;;;;;9.38;3.67;;;;;;;;;;5046132;28;20034;-83
2023/09/06 05:42:51;;;;;;;;;;;;;;;;;;5042411;28;20029;-83
2023/09/06 05:45:21;;;;;;;5.15;3.72;;;;;;;;;;5054272;28;19975;-83
2023/09/06 05:47:48;;;;;;;5.57;3.78;;;;;;;;;;5043263;28;20520;-83
2023/09/06 05:50:14;;;;;;;6.13;3.50;;;;;;;;;;5026590;28;20037;-83
2023/09/06 05:52:41;;;;;;;14.65;4.05;;;;;;;;;;5052552;28;20208;-83
2023/09/06 05:55:06;;;;;;;4.55;3.53;;;;;;;;;;5042370;28;20158;-82
2023/09/06 05:57:33;;;;;;;5.40;3.50;;;;;;;;;;5051852;28;20032;-84
2023/09/06 05:59:59;;;;;;;4.78;3.60;;;;;;;;;;5053407;28;20029;-83
2023/09/06 06:02:26;;;;;;;5.32;3.60;;;;;;;;;;5050130;28;20045;-83
2023/09/06 06:04:52;;;;;;;6.03;3.95;;;;;;;;;;5049197;28;20036;-83
2023/09/06 06:07:17;;;;;;;5.15;3.80;;;;;;;;;;5054882;28;20094;-83
2023/09/06 06:09:44;;;;;;;4.43;3.55;;;;;;;;;;5059521;28;20029;-83
2023/09/06 06:12:13;;;;;;;4.40;3.40;;;;;;;;;;5056571;28;20086;-84
2023/09/06 06:14:41;;;;;;;3.83;3.22;;;;;;;;;;5045707;28;20494;-81
2023/09/06 06:17:08;;;;;;;4.60;3.60;;;;;;;;;;5045265;28;20040;-83
2023/09/06 06:19:37;;;;;;;3.63;3.17;;;;;;;;;;5050568;28;20028;-83
2023/09/06 06:22:03;;;;;;;4.70;3.45;;;;;;;;;;5045894;28;20056;-82
2023/09/06 06:24:35;;;;;;;4.15;3.17;;;;;;;;;;5045778;28;20034;-83
2023/09/06 06:27:01;;;;;;;4.30;3.33;;;;;;;;;;5045918;28;20089;-83
2023/09/06 06:29:26;;;;;;;4.25;3.20;;;;;;;;;;5027400;28;20053;-83
2023/09/06 06:31:52;;;;;;;5.25;3.20;;;;;;;;;;5052962;28;20041;-84
2023/09/06 06:34:21;;;;;;;4.32;3.60;;;;;;;;;;5054635;28;20124;-83
2023/09/06 06:36:46;;;;;;;4.03;3.58;;;;;;;;;;5042884;28;20033;-83
2023/09/06 06:39:13;;;;;;;4.28;3.72;;;;;;;;;;5050276;28;20048;-82
2023/09/06 06:41:40;;;;;;;5.70;3.83;;;;;;;;;;5045575;28;20509;-82
2023/09/06 06:44:06;;;;;;;6.97;4.25;;;;;;;;;;5041128;28;20048;-82
2023/09/06 06:46:33;;;;;;;8.23;4.85;;;;;;;;;;5041581;28;20482;-82
2023/09/06 06:48:59;;;;;;;7.00;5.25;;;;;;;;;;5036078;28;20405;-82
2023/09/06 06:51:35;;;;;;;8.40;5.15;;;;;;;;;;5041639;28;20103;-82
2023/09/06 06:54:02;;;;;;;6.18;4.70;;;;;;;;;;5042166;28;20041;-82
2023/09/06 06:56:27;;;;;;;6.90;4.47;;;;;;;;;;5044039;28;20116;-82
2023/09/06 06:58:53;;;;;;;6.07;4.38;;;;;;;;;;5050365;28;20518;-82
2023/09/06 07:01:19;;;;;;;5.60;4.32;;;;;;;;;;5035087;28;20154;-83
2023/09/06 07:03:46;;;;;;;6.63;3.75;;;;;;;;;;5044713;28;20182;-83
2023/09/06 07:06:12;;;;;;;5.20;3.88;;;;;;;;;;5045498;28;20083;-83
2023/09/06 07:08:37;;;;;;;4.88;4.00;;;;;;;;;;5023834;28;20463;-82
2023/09/06 07:11:04;;;;;;;5.63;4.00;;;;;;;;;;5039288;28;20108;-83
2023/09/06 07:13:29;;;;;;;6.57;3.85;;;;;;;;;;5035689;28;20060;-82
2023/09/06 07:15:55;;;;;;;7.68;4.20;;;;;;;;;;5040190;28;20486;-83
2023/09/06 07:18:21;;;;;;;5.72;4.20;;;;;;;;;;5038417;28;20061;-82
2023/09/06 07:20:47;;;;;;;7.38;4.30;;;;;;;;;;5041327;28;20045;-83
2023/09/06 07:23:13;;;;;;;5.65;4.45;;;;;;;;;;5035955;28;20029;-83
2023/09/06 07:25:39;;;;;;;8.40;5.20;;;;;;;;;;5037121;28;20510;-83
2023/09/06 07:28:05;;;;;;;6.07;4.85;;;;;;;;;;5049991;28;20127;-83
2023/09/06 07:30:32;;;;;;;6.75;4.30;;;;;;;;;;5050668;28;20142;-83
2023/09/06 07:32:58;;;;;;;5.10;4.45;;;;;;;;;;5038598;28;20052;-83
2023/09/06 07:35:23;;;;;;;7.00;3.95;;;;;;;;;;5035371;28;20083;-83
2023/09/06 07:37:49;;;;;;;5.10;3.60;;;;;;;;;;5050629;28;20037;-83
2023/09/06 07:40:14;;;;;;;5.70;3.20;;;;;;;;;;5050359;28;20041;-81
2023/09/06 07:42:40;;;;;;;5.18;3.53;;;;;;;;;;5037912;28;20033;-83
2023/09/06 07:45:07;;;;;;;4.55;3.40;;;;;;;;;;5038370;28;20502;-83
2023/09/06 07:47:33;;;;;;;4.95;3.70;;;;;;;;;;5035136;28;20033;-83
2023/09/06 07:49:59;;;;;;;4.88;3.53;;;;;;;;;;5042146;28;20112;-83
2023/09/06 07:52:25;;;;;;;5.13;3.30;;;;;;;;;;5036751;28;20156;-83
2023/09/06 07:54:50;;;;;;;4.63;3.55;;;;;;;;;;5023297;28;20029;-83
2023/09/06 07:57:16;;;;;;;4.57;3.28;;;;;;;;;;5050899;28;20092;-83
2023/09/06 07:59:41;;;;;;;3.85;3.13;;;;;;;;;;5041373;28;20072;-83
2023/09/06 08:02:07;;;;;;;5.80;3.50;;;;;;;;;;5039647;28;20029;-83
2023/09/06 08:04:32;;;;;;;4.95;3.50;;;;;;;;;;5042020;28;20025;-83
2023/09/06 08:06:58;;;;;;;5.38;3.45;;;;;;;;;;5039678;28;20363;-83
2023/09/06 08:09:24;;;;;;;5.03;3.80;;;;;;;;;;5048463;28;20037;-83
2023/09/06 08:11:49;;;;;;;5.80;3.42;;;;;;;;;;5050678;28;20523;-84
2023/09/06 08:14:15;;;;;;;6.28;3.50;;;;;;;;;;5050577;28;20036;-83
2023/09/06 08:16:40;;;;;;;10.32;3.50;;;;;;;;;;5061724;28;20063;-83
2023/09/06 08:19:06;;;;;;;4.43;3.28;;;;;;;;;;5040862;28;20114;-83
2023/09/06 08:21:31;;;;;;;5.07;3.35;;;;;;;;;;5048923;28;20033;-83
2023/09/06 08:23:57;;;;;;;5.00;3.53;;;;;;;;;;5037072;28;20039;-83
2023/09/06 08:26:22;;;;;;;5.88;3.40;;;;;;;;;;5044221;28;20037;-84
2023/09/06 08:28:49;;;;;;;4.45;3.38;;;;;;;;;;5049705;28;20099;-83
2023/09/06 08:31:14;;;;;;;6.97;3.45;;;;;;;;;;5046684;28;20159;-83
2023/09/06 08:33:40;;;;;;;5.40;3.40;;;;;;;;;;5035463;28;20033;-83
2023/09/06 08:36:06;;;;;;;6.05;3.63;;;;;;;;;;5044666;28;20097;-83
2023/09/06 08:38:32;;;;;;;5.63;3.30;;;;;;;;;;5041488;28;20052;-83
2023/09/06 08:40:58;;;;;;;4.15;3.20;;;;;;;;;;5037256;28;20033;-84
2023/09/06 08:43:28;;;;;;;6.07;3.67;;;;;;;;;;5040248;28;20139;-83
2023/09/06 08:45:54;;;;;;;5.63;3.60;;;;;;;;;;5044163;28;20077;-83
2023/09/06 08:48:20;;;;;;;4.95;3.28;;;;;;;;;;5050703;28;20033;-84
2023/09/06 08:50:46;;;;;;;5.78;3.55;;;;;;;;;;5044511;28;20033;-83
2023/09/06 08:53:14;;;;;;;4.82;3.55;;;;;;;;;;5038282;28;20041;-83
2023/09/06 08:55:42;;;;;;;4.95;3.60;;;;;;;;;;5034011;28;20049;-84
2023/09/06 08:58:07;;;;;;;6.15;3.50;;;;;;;;;;5037509;28;20401;-82
2023/09/06 09:00:34;;;;;;;5.47;3.80;;;;;;;;;;5042465;28;20030;-85
2023/09/06 09:03:00;;;;;;;5.95;3.33;;;;;;;;;;5038653;28;20033;-83
2023/09/06 09:05:25;;;;;;;5.93;3.80;;;;;;;;;;5034392;28;20041;-85
2023/09/06 09:07:59;;;;;;;6.50;3.55;;;;;;;;;;5050158;28;20048;-83
2023/09/06 09:10:28;;;;;;;;;;;;;;;;;;5041741;28;20132;-83
2023/09/06 09:12:56;;;;;;;6.40;3.55;;;;;;;;;;5041281;28;19917;-84
2023/09/06 09:15:25;;;;;;;5.47;3.45;;;;;;;;;;5036010;28;20049;-84
2023/09/06 09:17:51;;;;;;;4.72;3.20;;;;;;;;;;5045323;28;20041;-83
2023/09/06 09:20:18;;;;;;;4.95;3.10;;;;;;;;;;5044104;28;20120;-82
2023/09/06 09:22:44;;;;;;;5.10;2.90;;;;;;;;;;5036710;28;20064;-85
2023/09/06 09:25:16;;;;;;;7.28;3.13;;;;;;;;;;5037388;28;20032;-83
2023/09/06 09:27:44;;;;;;;4.50;3.00;;;;;;;;;;5049324;28;20037;-83
2023/09/06 09:30:12;;;;;;;4.80;3.20;;;;;;;;;;5035418;28;20033;-85
2023/09/06 09:32:39;;;;;;;4.65;3.33;;;;;;;;;;5054727;28;20033;-83
2023/09/06 09:35:10;;;;;;;7.45;3.50;;;;;;;;;;5042229;28;20049;-83
2023/09/06 09:37:38;;;;;;;4.50;2.90;;;;;;;;;;5037415;28;20029;-84
2023/09/06 09:40:32;;;;;;;5.10;3.40;;;;;;;;;;5036100;28;20044;-84
2023/09/06 09:43:00;;;;;;;4.90;3.00;;;;;;;;;;5046922;28;20035;-86
2023/09/06 09:45:28;;;;;;;5.40;3.20;;;;;;;;;;5047936;28;20059;-85
2023/09/06 09:47:57;;;;;;;4.70;3.22;;;;;;;;;;5043608;28;20037;-86
2023/09/06 09:50:29;;;;;;;5.47;3.35;;;;;;;;;;5047019;28;20068;-84
2023/09/06 09:52:55;;;;;;;6.80;3.47;;;;;;;;;;5040508;28;20064;-84
2023/09/06 09:55:27;;;;;;;4.97;3.40;;;;;;;;;;5041421;28;20033;-85
2023/09/06 09:57:54;;;;;;;6.03;3.67;;;;;;;;;;5046966;28;20041;-85
2023/09/06 10:00:27;;;;;;;5.40;3.40;;;;;;;;;;5043231;28;20045;-84
2023/09/06 10:02:56;;;;;;;8.10;3.65;;;;;;;;;;5042728;28;20410;-85
2023/09/06 10:05:23;;;;;;;4.90;3.40;;;;;;;;;;5040372;28;20116;-84
2023/09/06 10:07:49;;;;;;;8.25;3.45;;;;;;;;;;5048150;28;20063;-84
2023/09/06 10:10:15;;;;;;;5.95;3.30;;;;;;;;;;5048669;28;20029;-84
2023/09/06 10:12:44;;;;;;;5.43;3.35;;;;;;;;;;5055009;28;20033;-84
2023/09/06 10:15:15;;;;;;;7.22;3.95;;;;;;;;;;5041831;28;20060;-84
2023/09/06 10:17:42;;;;;;;5.70;3.58;;;;;;;;;;5026560;28;20037;-84
2023/09/06 10:20:14;;;;;;;6.03;3.53;;;;;;;;;;5044457;28;20067;-84
2023/09/06 10:22:43;;;;;;;7.63;3.80;;;;;;;;;;5065533;28;20068;-85
2023/09/06 10:25:10;;;;;;;8.10;3.90;;;;;;;;;;5038960;28;20048;-84
2023/09/06 10:27:45;;;;;;;7.93;4.20;;;;;;;;;;5037896;28;20052;-84
2023/09/06 10:30:17;;;;;;;6.80;3.78;;;;;;;;;;5040857;28;20037;-84
2023/09/06 10:32:46;;;;;;;6.18;3.75;;;;;;;;;;5045243;28;20406;-84
2023/09/06 10:35:24;;;;;;;5.85;3.88;;;;;;;;;;5039392;28;20037;-84
2023/09/06 10:38:11;;;;;;;6.10;4.05;;;;;;;;;;5045485;28;20042;-84
2023/09/06 10:40:49;;;;;;;6.78;3.70;;;;;;;;;;5052248;28;20033;-84
2023/09/06 10:43:19;;;;;;;5.70;4.03;;;;;;;;;;5043482;28;20044;-84
2023/09/06 10:46:09;;;;;;;6.88;3.90;;;;;;;;;;5040497;28;20054;-84
2023/09/06 10:48:35;;;;;;;5.07;3.72;;;;;;;;;;5039809;28;20094;-84
2023/09/06 10:51:08;;;;;;;6.90;4.10;;;;;;;;;;5049806;28;20041;-84
2023/09/06 10:53:35;;;;;;;5.22;4.00;;;;;;;;;;5041402;28;20037;-84
2023/09/06 10:56:02;;;;;;;9.63;4.20;;;;;;;;;;5037981;28;20060;-84
2023/09/06 10:58:29;;;;;;;6.90;4.25;;;;;;;;;;5040157;28;20078;-84
2023/09/06 11:01:13;;;;;;;9.93;3.92;;;;;;;;;;5036569;28;20033;-84
2023/09/06 11:03:41;;;;;;;5.72;3.58;;;;;;;;;;5040794;28;20075;-84
2023/09/06 11:06:07;;;;;;;5.55;3.65;;;;;;;;;;5044511;28;20075;-84
2023/09/06 11:08:33;;;;;;;5.95;3.75;;;;;;;;;;5044858;28;20087;-85
2023/09/06 11:11:01;;;;;;;6.82;3.78;;;;;;;;;;5037120;28;20095;-84
2023/09/06 11:13:31;;;;;;;6.07;3.67;;;;;;;;;;5052285;28;20088;-84
2023/09/06 11:15:57;;;;;;;6.60;4.22;;;;;;;;;;5048510;28;20491;-84
2023/09/06 11:18:23;;;;;;;5.13;3.70;;;;;;;;;;5043661;28;20760;-84
2023/09/06 11:20:49;;;;;;;4.38;3.30;;;;;;;;;;5050035;28;20033;-84
2023/09/06 11:23:16;;;;;;;5.00;3.38;;;;;;;;;;5038172;28;20111;-85
2023/09/06 11:25:42;;;;;;;4.35;3.65;;;;;;;;;;5051477;28;20059;-84
2023/09/06 11:28:19;;;;;;;4.53;3.45;;;;;;;;;;5043069;28;20528;-84
2023/09/06 11:30:48;;;;;;;5.80;3.58;;;;;;;;;;5044161;28;20044;-84
2023/09/06 11:33:17;;;;;;;6.43;3.42;;;;;;;;;;5038943;28;20099;-84
2023/09/06 11:35:58;;;;;;;5.38;3.47;;;;;;;;;;5036075;28;20048;-84
2023/09/06 11:38:30;;;;;;;5.07;3.60;;;;;;;;;;5037145;28;20053;-84
2023/09/06 11:40:57;;;;;;;4.15;3.20;;;;;;;;;;5042603;28;20045;-84
2023/09/06 11:43:24;;;;;;;4.63;3.40;;;;;;;;;;5039234;28;20049;-84
2023/09/06 11:45:54;;;;;;;4.05;3.00;;;;;;;;;;5045322;28;20503;-84
2023/09/06 11:48:27;;;;;;;5.60;3.53;;;;;;;;;;5049494;28;20033;-84
2023/09/06 11:51:02;;;;;;;5.03;3.30;;;;;;;;;;5043710;28;20042;-86
2023/09/06 11:53:28;;;;;;;5.65;3.45;;;;;;;;;;5045930;28;20099;-84
2023/09/06 11:55:59;;;;;;;5.57;3.40;;;;;;;;;;5037768;28;20065;-85
2023/09/06 11:58:27;;;;;;;4.50;3.15;;;;;;;;;;5035757;28;20033;-84
2023/09/06 12:00:55;;;;;;;5.43;3.30;;;;;;;;;;5039286;28;20084;-85
2023/09/06 12:03:33;;;;;;;4.70;3.35;;;;;;;;;;5032607;28;20752;-84
2023/09/06 12:06:00;;;;;;;6.05;3.50;;;;;;;;;;5039868;28;20049;-84
2023/09/06 12:08:29;;;;;;;6.43;3.53;;;;;;;;;;5042932;28;20056;-84
2023/09/06 12:11:05;;;;;;;4.18;3.20;;;;;;;;;;5037135;28;20044;-84
2023/09/06 12:13:34;;;;;;;8.40;3.40;;;;;;;;;;5047677;28;20163;-84
2023/09/06 12:16:01;;;;;;;5.80;3.60;;;;;;;;;;5040765;28;20528;-84
2023/09/06 12:18:28;;;;;;;6.45;3.03;;;;;;;;;;5036325;28;20087;-85
2023/09/06 12:20:58;;;;;;;4.68;3.10;;;;;;;;;;5041824;28;20040;-85
2023/09/06 12:23:28;;;;;;;5.53;3.28;;;;;;;;;;5047391;28;20033;-85
2023/09/06 12:25:55;;;;;;;6.45;3.38;;;;;;;;;;5040548;28;20116;-84
2023/09/06 12:28:20;;;;;;;4.50;3.30;;;;;;;;;;5037582;28;20030;-85
2023/09/06 12:30:46;;;;;;;5.03;3.55;;;;;;;;;;5035021;28;20045;-85
2023/09/06 12:33:14;;;;;;;8.45;3.42;;;;;;;;;;5040756;28;20112;-83
2023/09/06 12:35:40;;;;;;;5.70;3.45;;;;;;;;;;5037479;28;20049;-85
2023/09/06 12:38:06;;;;;;;6.38;3.40;;;;;;;;;;5042187;28;20807;-85
2023/09/06 12:40:33;;;;;;;4.88;3.10;;;;;;;;;;5037528;28;20041;-85
2023/09/06 12:42:59;;;;;;;6.97;3.40;;;;;;;;;;5043737;28;20029;-85
2023/09/06 12:45:30;;;;;;;5.25;3.15;;;;;;;;;;5045553;28;20414;-85
2023/09/06 12:47:57;;;;;;;4.18;3.17;;;;;;;;;;5044379;28;20045;-85
2023/09/06 12:50:24;;;;;;;4.57;3.30;;;;;;;;;;5039597;28;20128;-85
2023/09/06 12:52:51;;;;;;;5.40;3.33;;;;;;;;;;5034847;28;20078;-84
2023/09/06 12:55:17;;;;;;;5.10;3.17;;;;;;;;;;5038398;28;20045;-84
2023/09/06 12:57:42;;;;;;;5.90;3.10;;;;;;;;;;5039357;28;20029;-85
2023/09/06 13:00:12;;;;;;;5.10;3.40;;;;;;;;;;5042913;28;20064;-84
2023/09/06 13:02:38;;;;;;;5.00;3.30;;;;;;;;;;5038604;28;20037;-84
2023/09/06 13:05:04;;;;;;;5.15;3.30;;;;;;;;;;5037760;28;20116;-85
2023/09/06 13:07:30;;;;;;;3.63;2.88;;;;;;;;;;5036743;28;20475;-85
2023/09/06 13:09:58;;;;;;;3.65;2.92;;;;;;;;;;5041202;28;20037;-82
2023/09/06 13:12:24;;;;;;;3.83;3.05;;;;;;;;;;5041166;28;20754;-84
2023/09/06 13:14:49;;;;;;;4.03;2.85;;;;;;;;;;5035919;28;20120;-83
2023/09/06 13:17:15;;;;;;;5.53;3.10;;;;;;;;;;5033596;28;20039;-83
2023/09/06 13:19:44;;;;;;;4.05;2.88;;;;;;;;;;5049517;28;20044;-86
2023/09/06 13:22:12;;;;;;;3.45;2.83;;;;;;;;;;5061636;28;20075;-84
2023/09/06 13:24:37;;;;;;;5.97;3.17;;;;;;;;;;5043845;28;20071;-86
2023/09/06 13:27:03;;;;;;;3.63;2.70;;;;;;;;;;5041772;28;20054;-87
2023/09/06 13:29:29;;;;;;;3.85;2.97;;;;;;;;;;5037557;28;20025;-85
2023/09/06 13:31:55;;;;;;;3.72;2.90;;;;;;;;;;5044339;28;20041;-85
2023/09/06 13:34:20;;;;;;;3.33;2.58;;;;;;;;;;5039693;28;20036;-85
2023/09/06 13:36:47;;;;;;;3.72;2.70;;;;;;;;;;5042690;28;20041;-85
2023/09/06 13:39:13;;;;;;;3.90;2.90;;;;;;;;;;5038079;28;20562;-85
2023/09/06 13:41:41;;;;;;;4.55;2.60;;;;;;;;;;5039793;28;20033;-85
2023/09/06 13:44:06;;;;;;;2.75;2.45;;;;;;;;;;5046518;28;20040;-85
2023/09/06 13:46:32;;;;;;;3.85;2.70;;;;;;;;;;5054467;28;20029;-85
2023/09/06 13:49:00;;;;;;;7.07;2.60;;;;;;;;;;5040780;28;20040;-85
2023/09/06 13:51:28;;;;;;;6.18;2.50;;;;;;;;;;5043460;28;20099;-83
2023/09/06 13:53:54;;;;;;;3.47;2.78;;;;;;;;;;5051140;28;20039;-85
2023/09/06 13:56:19;;;;;;;4.13;2.80;;;;;;;;;;5046679;28;20040;-85
2023/09/06 13:58:45;;;;;;;5.53;2.63;;;;;;;;;;5041193;28;20040;-84
2023/09/06 14:01:11;;;;;;;4.80;2.45;;;;;;;;;;5043107;28;20033;-85
2023/09/06 14:03:37;;;;;;;3.15;2.55;;;;;;;;;;5037869;28;20498;-85
2023/09/06 14:06:02;;;;;;;3.30;2.45;;;;;;;;;;5029831;28;20600;-84
2023/09/06 14:08:28;;;;;;;3.17;2.40;;;;;;;;;;5061066;28;20544;-85
2023/09/06 14:10:54;;;;;;;3.67;2.30;;;;;;;;;;5041591;28;20021;-85
2023/09/06 14:13:22;;;;;;;3.53;2.50;;;;;;;;;;5054648;28;20498;-85
2023/09/06 14:15:47;;;;;;;4.20;2.50;;;;;;;;;;5040088;28;20074;-84
2023/09/06 14:18:13;;;;;;;3.80;2.65;;;;;;;;;;5044756;28;20120;-85
2023/09/06 14:20:38;;;;;;;4.00;2.75;;;;;;;;;;5044539;28;20033;-85
2023/09/06 14:23:04;;;;;;;6.28;2.63;;;;;;;;;;5035273;28;20044;-85
2023/09/06 14:25:30;;;;;;;5.03;3.45;;;;;;;;;;5042481;28;20115;-85
2023/09/06 14:27:56;;;;;;;3.53;2.80;;;;;;;;;;5050629;28;20438;-85
2023/09/06 14:30:21;;;;;;;4.00;2.85;;;;;;;;;;5043521;28;20394;-84
2023/09/06 14:32:47;;;;;;;3.88;2.72;;;;;;;;;;5039082;28;20114;-85
2023/09/06 14:35:12;;;;;;;5.05;2.90;;;;;;;;;;5048390;28;20141;-84
2023/09/06 14:37:38;;;;;;;3.33;2.50;;;;;;;;;;5036827;28;20041;-85
2023/09/06 14:40:05;;;;;;;5.60;2.50;;;;;;;;;;5040865;28;20041;-85
2023/09/06 14:42:32;;;;;;;4.78;2.72;;;;;;;;;;5049438;28;20548;-85
2023/09/06 14:45:01;;;;;;;4.00;2.80;;;;;;;;;;5041462;28;20037;-85
2023/09/06 14:47:27;;;;;;;6.00;2.97;;;;;;;;;;5037496;28;20045;-85
2023/09/06 14:49:53;;;;;;;4.50;2.80;;;;;;;;;;5038989;28;20075;-85